createdAt,value
2017-05-17T00:00:53.010Z,0
2017-05-17T00:01:53.004Z,0
2017-05-17T00:02:53.012Z,0
2017-05-17T00:03:53.022Z,0
2017-05-17T00:04:52.993Z,0
2017-05-17T00:05:53.003Z,0
2017-05-17T00:06:53.043Z,0
2017-05-17T00:07:53.018Z,0
2017-05-17T00:08:53.020Z,0
2017-05-17T00:09:52.996Z,0
2017-05-17T00:10:53.016Z,0
2017-05-17T00:11:53.025Z,0
2017-05-17T00:12:53.023Z,0
2017-05-17T00:13:52.991Z,0
2017-05-17T00:14:53.069Z,0
2017-05-17T00:15:53.070Z,0
2017-05-17T00:16:53.023Z,0
2017-05-17T00:18:53.027Z,0
2017-05-17T00:19:53.074Z,0
2017-05-17T00:20:53.070Z,0
2017-05-17T00:21:53.018Z,0
2017-05-17T00:22:53.029Z,0
2017-05-17T00:23:53.076Z,0
2017-05-17T00:24:53.030Z,0
2017-05-17T00:25:53.028Z,0
2017-05-17T00:26:53.037Z,0
2017-05-17T00:27:53.000Z,0
2017-05-17T00:28:53.023Z,0
2017-05-17T00:29:53.032Z,0
2017-05-17T00:30:53.074Z,0
2017-05-17T00:31:53.024Z,0
2017-05-17T00:32:53.082Z,0
2017-05-17T00:33:53.028Z,0
2017-05-17T00:34:53.057Z,0
2017-05-17T00:35:53.058Z,0
2017-05-17T00:36:53.035Z,0
2017-05-17T00:37:53.029Z,0
2017-05-17T00:38:53.042Z,0
2017-05-17T00:39:53.011Z,0
2017-05-17T00:40:53.064Z,0
2017-05-17T00:41:53.044Z,0
2017-05-17T00:42:53.031Z,0
2017-05-17T00:43:53.035Z,0
2017-05-17T00:44:53.146Z,0
2017-05-17T00:45:53.083Z,0
2017-05-17T00:46:53.034Z,0
2017-05-17T00:47:53.045Z,0
2017-05-17T00:48:53.041Z,0
2017-05-17T00:49:53.093Z,0
2017-05-17T00:50:53.066Z,0
2017-05-17T00:51:53.042Z,0
2017-05-17T00:52:53.038Z,0
2017-05-17T00:53:53.019Z,0
2017-05-17T00:54:53.046Z,0
2017-05-17T00:55:53.064Z,0
2017-05-17T00:56:53.049Z,0
2017-05-17T00:57:53.046Z,0
2017-05-17T00:58:53.104Z,0
2017-05-17T00:59:53.014Z,0
2017-05-17T01:00:53.038Z,0
2017-05-17T01:01:53.038Z,0
2017-05-17T01:02:53.156Z,0
2017-05-17T01:03:53.018Z,0
2017-05-17T01:04:53.024Z,0
2017-05-17T01:05:53.021Z,0
2017-05-17T01:06:53.023Z,0
2017-05-17T01:07:53.020Z,0
2017-05-17T01:08:53.024Z,0
2017-05-17T01:09:53.020Z,0
2017-05-17T01:10:53.024Z,0
2017-05-17T01:11:53.025Z,0
2017-05-17T01:12:53.024Z,0
2017-05-17T01:13:53.077Z,0
2017-05-17T01:14:53.051Z,0
2017-05-17T01:15:53.046Z,0
2017-05-17T01:16:53.148Z,0
2017-05-17T01:17:53.050Z,0
2017-05-17T01:18:53.052Z,0
2017-05-17T01:19:53.052Z,0
2017-05-17T01:20:53.043Z,0
2017-05-17T01:21:53.064Z,0
2017-05-17T01:22:53.051Z,0
2017-05-17T01:23:53.025Z,0
2017-05-17T01:24:53.033Z,0
2017-05-17T01:25:53.032Z,0
2017-05-17T01:26:53.031Z,0
2017-05-17T01:27:53.032Z,0
2017-05-17T01:28:53.106Z,0
2017-05-17T01:29:53.085Z,0
2017-05-17T01:30:53.036Z,0
2017-05-17T01:31:53.034Z,0
2017-05-17T01:32:53.033Z,0
2017-05-17T01:33:53.027Z,0
2017-05-17T01:34:53.026Z,0
2017-05-17T01:35:53.026Z,0
2017-05-17T01:36:53.027Z,0
2017-05-17T01:37:53.035Z,0
2017-05-17T01:38:53.024Z,0
2017-05-17T01:39:53.024Z,0
2017-05-17T01:40:53.021Z,0
2017-05-17T01:41:53.029Z,0
2017-05-17T01:42:53.027Z,0
2017-05-17T01:43:53.045Z,0
2017-05-17T01:44:53.040Z,0
2017-05-17T01:45:53.044Z,0
2017-05-17T01:46:53.039Z,0
2017-05-17T01:47:53.039Z,0
2017-05-17T01:48:53.046Z,0
2017-05-17T01:49:53.043Z,0
2017-05-17T01:50:53.043Z,0
2017-05-17T01:51:53.041Z,0
2017-05-17T01:52:53.048Z,0
2017-05-17T01:53:53.060Z,0
2017-05-17T01:54:53.066Z,0
2017-05-17T01:55:53.066Z,0
2017-05-17T01:56:53.066Z,0
2017-05-17T01:57:53.072Z,0
2017-05-17T01:58:53.276Z,0
2017-05-17T01:59:53.067Z,0
2017-05-17T02:00:53.085Z,0
2017-05-17T02:01:53.066Z,0
2017-05-17T02:02:53.069Z,0
2017-05-17T02:03:53.082Z,0
2017-05-17T02:04:53.084Z,0
2017-05-17T02:05:53.072Z,0
2017-05-17T02:06:53.080Z,0
2017-05-17T02:07:53.049Z,0
2017-05-17T02:08:53.071Z,0
2017-05-17T02:09:53.105Z,0
2017-05-17T02:10:53.072Z,0
2017-05-17T02:11:53.087Z,0
2017-05-17T02:12:53.081Z,0
2017-05-17T02:13:53.087Z,0
2017-05-17T02:14:53.085Z,0
2017-05-17T02:15:53.048Z,0
2017-05-17T02:16:53.087Z,0
2017-05-17T02:17:53.087Z,0
2017-05-17T02:18:53.088Z,0
2017-05-17T02:19:53.054Z,0
2017-05-17T02:20:53.080Z,0
2017-05-17T02:21:53.060Z,0
2017-05-17T02:22:53.064Z,0
2017-05-17T02:23:53.090Z,0
2017-05-17T02:24:53.058Z,0
2017-05-17T02:25:53.057Z,0
2017-05-17T02:26:53.060Z,0
2017-05-17T02:27:53.059Z,0
2017-05-17T02:28:53.061Z,0
2017-05-17T02:29:53.065Z,0
2017-05-17T02:30:53.063Z,0
2017-05-17T02:31:53.062Z,0
2017-05-17T02:32:53.062Z,0
2017-05-17T02:33:53.073Z,0
2017-05-17T02:34:53.100Z,0
2017-05-17T02:35:53.086Z,0
2017-05-17T02:36:53.094Z,0
2017-05-17T02:37:53.094Z,0
2017-05-17T02:38:53.097Z,0
2017-05-17T02:39:53.089Z,0
2017-05-17T02:40:53.099Z,0
2017-05-17T02:41:53.097Z,0
2017-05-17T02:42:53.091Z,0
2017-05-17T02:43:53.142Z,0
2017-05-17T02:44:53.072Z,0
2017-05-17T02:45:53.069Z,0
2017-05-17T02:46:53.075Z,0
2017-05-17T02:47:53.070Z,0
2017-05-17T02:48:53.070Z,0
2017-05-17T02:49:53.076Z,0
2017-05-17T02:50:53.075Z,0
2017-05-17T02:51:53.072Z,0
2017-05-17T02:52:53.078Z,0
2017-05-17T02:53:53.078Z,0
2017-05-17T02:54:53.096Z,0
2017-05-17T02:55:53.094Z,0
2017-05-17T02:56:53.096Z,0
2017-05-17T02:57:53.117Z,0
2017-05-17T02:58:53.097Z,0
2017-05-17T02:59:53.055Z,0
2017-05-17T03:00:53.107Z,0
2017-05-17T03:01:53.104Z,0
2017-05-17T03:02:53.114Z,0
2017-05-17T03:03:53.099Z,0
2017-05-17T03:04:53.100Z,0
2017-05-17T03:05:53.099Z,0
2017-05-17T03:06:53.065Z,0
2017-05-17T03:07:53.203Z,0
2017-05-17T03:08:53.108Z,0
2017-05-17T03:09:53.122Z,0
2017-05-17T03:10:53.104Z,0
2017-05-17T03:11:53.105Z,0
2017-05-17T03:12:53.082Z,0
2017-05-17T03:13:53.065Z,0
2017-05-17T03:14:53.107Z,0
2017-05-17T03:15:53.064Z,0
2017-05-17T03:16:53.106Z,0
2017-05-17T03:17:53.103Z,0
2017-05-17T03:18:53.107Z,0
2017-05-17T03:19:53.110Z,0
2017-05-17T03:20:53.129Z,0
2017-05-17T03:21:53.212Z,0
2017-05-17T03:22:53.314Z,0
2017-05-17T03:23:53.126Z,0
2017-05-17T03:24:53.118Z,0
2017-05-17T03:25:53.132Z,0
2017-05-17T03:26:53.089Z,0
2017-05-17T03:27:53.138Z,0
2017-05-17T03:28:53.113Z,0
2017-05-17T03:29:53.118Z,0
2017-05-17T03:30:53.123Z,0
2017-05-17T03:31:53.149Z,0
2017-05-17T03:32:53.125Z,0
2017-05-17T03:33:53.118Z,0
2017-05-17T03:34:53.102Z,0
2017-05-17T03:35:53.121Z,0
2017-05-17T03:36:53.117Z,0
2017-05-17T03:37:53.128Z,0
2017-05-17T03:38:53.096Z,0
2017-05-17T03:39:53.170Z,0
2017-05-17T03:40:53.118Z,0
2017-05-17T03:41:53.118Z,0
2017-05-17T03:42:53.155Z,0
2017-05-17T03:43:53.124Z,0
2017-05-17T03:44:53.137Z,0
2017-05-17T03:45:53.111Z,0
2017-05-17T03:46:53.131Z,0
2017-05-17T03:47:53.177Z,0
2017-05-17T03:48:53.102Z,0
2017-05-17T03:49:53.137Z,0
2017-05-17T03:50:53.128Z,0
2017-05-17T03:51:53.155Z,0
2017-05-17T03:52:53.129Z,0
2017-05-17T03:53:53.134Z,0
2017-05-17T03:54:53.127Z,0
2017-05-17T03:55:53.104Z,0
2017-05-17T03:56:53.138Z,0
2017-05-17T03:57:53.107Z,0
2017-05-17T03:58:53.138Z,0
2017-05-17T03:59:53.127Z,0
2017-05-17T04:00:53.141Z,0
2017-05-17T04:01:53.233Z,0
2017-05-17T04:02:53.138Z,0
2017-05-17T04:03:53.140Z,0
2017-05-17T04:04:53.108Z,0
2017-05-17T04:05:53.107Z,0
2017-05-17T04:06:53.107Z,0
2017-05-17T04:07:53.106Z,0
2017-05-17T04:08:53.104Z,0
2017-05-17T04:09:53.108Z,0
2017-05-17T04:10:53.109Z,0
2017-05-17T04:11:53.114Z,0
2017-05-17T04:12:53.111Z,0
2017-05-17T04:13:53.115Z,0
2017-05-17T04:14:53.112Z,0
2017-05-17T04:15:53.114Z,0
2017-05-17T04:16:53.113Z,0
2017-05-17T04:17:53.113Z,0
2017-05-17T04:18:53.114Z,0
2017-05-17T04:19:53.113Z,0
2017-05-17T04:20:53.113Z,0
2017-05-17T04:21:53.111Z,14
2017-05-17T04:22:53.121Z,16
2017-05-17T04:23:53.116Z,16
2017-05-17T04:24:53.253Z,17
2017-05-17T04:25:53.148Z,18
2017-05-17T04:26:53.146Z,19
2017-05-17T04:27:53.121Z,20
2017-05-17T04:28:53.110Z,21
2017-05-17T04:29:53.151Z,22
2017-05-17T04:30:53.171Z,23
2017-05-17T04:31:53.135Z,24
2017-05-17T04:32:53.155Z,25
2017-05-17T04:33:53.134Z,25
2017-05-17T04:34:53.139Z,27
2017-05-17T04:35:53.148Z,27
2017-05-17T04:36:53.210Z,28
2017-05-17T04:37:53.146Z,29
2017-05-17T04:38:53.148Z,32
2017-05-17T04:39:53.149Z,33
2017-05-17T04:40:53.133Z,34
2017-05-17T04:41:53.144Z,35
2017-05-17T04:42:53.145Z,36
2017-05-17T04:43:53.142Z,38
2017-05-17T04:44:53.164Z,39
2017-05-17T04:45:53.142Z,38
2017-05-17T04:46:53.144Z,41
2017-05-17T04:47:53.155Z,42
2017-05-17T04:48:53.143Z,44
2017-05-17T04:49:53.154Z,46
2017-05-17T04:50:53.153Z,48
2017-05-17T04:51:53.164Z,49
2017-05-17T04:52:53.143Z,50
2017-05-17T04:53:53.158Z,52
2017-05-17T04:54:53.132Z,53
2017-05-17T04:55:53.131Z,53
2017-05-17T04:56:53.135Z,56
2017-05-17T04:57:53.132Z,56
2017-05-17T04:58:53.135Z,57
2017-05-17T04:59:53.150Z,58
2017-05-17T05:00:53.134Z,60
2017-05-17T05:01:53.135Z,60
2017-05-17T05:02:53.137Z,60
2017-05-17T05:03:53.140Z,62
2017-05-17T05:04:53.119Z,64
2017-05-17T05:05:53.104Z,65
2017-05-17T05:06:53.105Z,66
2017-05-17T05:07:53.076Z,66
2017-05-17T05:08:53.104Z,68
2017-05-17T05:09:53.123Z,69
2017-05-17T05:10:53.140Z,69
2017-05-17T05:11:53.078Z,71
2017-05-17T05:12:53.124Z,70
2017-05-17T05:13:53.115Z,73
2017-05-17T05:14:53.175Z,75
2017-05-17T05:15:53.166Z,76
2017-05-17T05:16:53.239Z,77
2017-05-17T05:17:53.176Z,78
2017-05-17T05:18:53.181Z,80
2017-05-17T05:19:53.200Z,83
2017-05-17T05:20:53.171Z,84
2017-05-17T05:21:53.191Z,86
2017-05-17T05:22:53.223Z,88
2017-05-17T05:23:53.179Z,90
2017-05-17T05:24:53.179Z,93
2017-05-17T05:25:53.144Z,95
2017-05-17T05:26:53.223Z,96
2017-05-17T05:27:53.174Z,98
2017-05-17T05:28:53.181Z,100
2017-05-17T05:29:53.185Z,105
2017-05-17T05:30:53.184Z,106
2017-05-17T05:31:53.174Z,108
2017-05-17T05:32:53.183Z,112
2017-05-17T05:33:53.225Z,115
2017-05-17T05:34:53.183Z,115
2017-05-17T05:35:53.155Z,118
2017-05-17T05:36:53.152Z,115
2017-05-17T05:37:53.156Z,115
2017-05-17T05:38:53.154Z,110
2017-05-17T05:39:53.156Z,111
2017-05-17T05:40:53.159Z,122
2017-05-17T05:41:53.156Z,125
2017-05-17T05:42:53.163Z,134
2017-05-17T05:43:53.159Z,137
2017-05-17T05:44:53.165Z,139
2017-05-17T05:45:53.192Z,140
2017-05-17T05:46:53.194Z,142
2017-05-17T05:47:53.192Z,144
2017-05-17T05:48:53.216Z,145
2017-05-17T05:49:53.195Z,146
2017-05-17T05:50:53.155Z,144
2017-05-17T05:51:53.180Z,148
2017-05-17T05:52:53.194Z,148
2017-05-17T05:53:53.158Z,149
2017-05-17T05:54:53.180Z,150
2017-05-17T05:55:53.196Z,151
2017-05-17T05:56:53.105Z,149
2017-05-17T05:57:53.199Z,154
2017-05-17T05:58:53.154Z,157
2017-05-17T05:59:53.141Z,160
2017-05-17T06:00:53.197Z,162
2017-05-17T06:01:53.134Z,165
2017-05-17T06:02:53.103Z,164
2017-05-17T06:03:53.201Z,167
2017-05-17T06:04:53.138Z,169
2017-05-17T06:05:53.204Z,175
2017-05-17T06:06:53.243Z,178
2017-05-17T06:07:53.306Z,180
2017-05-17T06:08:53.225Z,178
2017-05-17T06:09:53.203Z,180
2017-05-17T06:10:53.225Z,182
2017-05-17T06:11:53.225Z,189
2017-05-17T06:12:53.197Z,191
2017-05-17T06:13:53.206Z,194
2017-05-17T06:14:53.224Z,196
2017-05-17T06:15:53.192Z,197
2017-05-17T06:16:53.212Z,198
2017-05-17T06:17:53.201Z,204
2017-05-17T06:18:53.197Z,208
2017-05-17T06:19:53.187Z,211
2017-05-17T06:20:53.174Z,212
2017-05-17T06:21:53.201Z,212
2017-05-17T06:22:53.214Z,220
2017-05-17T06:23:53.208Z,223
2017-05-17T06:24:53.315Z,226
2017-05-17T06:25:53.180Z,227
2017-05-17T06:26:53.206Z,232
2017-05-17T06:27:53.319Z,230
2017-05-17T06:28:53.214Z,238
2017-05-17T06:29:53.218Z,239
2017-05-17T06:30:53.256Z,246
2017-05-17T06:31:53.198Z,249
2017-05-17T06:32:53.287Z,253
2017-05-17T06:33:53.214Z,258
2017-05-17T06:34:53.219Z,259
2017-05-17T06:35:53.117Z,268
2017-05-17T06:36:53.119Z,272
2017-05-17T06:37:53.122Z,277
2017-05-17T06:38:53.149Z,280
2017-05-17T06:39:53.151Z,284
2017-05-17T06:40:53.154Z,284
2017-05-17T06:41:53.217Z,291
2017-05-17T06:42:53.219Z,295
2017-05-17T06:43:53.124Z,298
2017-05-17T06:44:53.123Z,301
2017-05-17T06:45:53.221Z,305
2017-05-17T06:46:53.244Z,307
2017-05-17T06:47:53.220Z,311
2017-05-17T06:48:53.229Z,315
2017-05-17T06:49:53.267Z,319
2017-05-17T06:50:53.265Z,325
2017-05-17T06:51:53.208Z,327
2017-05-17T06:52:53.223Z,332
2017-05-17T06:53:53.269Z,342
2017-05-17T06:54:53.228Z,338
2017-05-17T06:55:53.229Z,340
2017-05-17T06:56:53.220Z,341
2017-05-17T06:57:53.221Z,337
2017-05-17T06:58:53.231Z,338
2017-05-17T06:59:53.217Z,345
2017-05-17T07:00:53.230Z,346
2017-05-17T07:01:53.226Z,346
2017-05-17T07:02:53.225Z,347
2017-05-17T07:03:53.217Z,347
2017-05-17T07:04:53.195Z,343
2017-05-17T07:05:53.214Z,350
2017-05-17T07:06:53.221Z,352
2017-05-17T07:07:53.219Z,354
2017-05-17T07:08:53.249Z,357
2017-05-17T07:09:53.197Z,357
2017-05-17T07:10:53.218Z,359
2017-05-17T07:11:53.221Z,366
2017-05-17T07:12:53.220Z,368
2017-05-17T07:13:53.230Z,371
2017-05-17T07:14:53.222Z,373
2017-05-17T07:15:53.227Z,375
2017-05-17T07:16:53.203Z,373
2017-05-17T07:17:53.209Z,379
2017-05-17T07:18:53.245Z,382
2017-05-17T07:19:53.232Z,385
2017-05-17T07:20:53.232Z,388
2017-05-17T07:21:53.235Z,388
2017-05-17T07:22:53.243Z,392
2017-05-17T07:23:53.226Z,397
2017-05-17T07:24:53.237Z,401
2017-05-17T07:25:53.245Z,403
2017-05-17T07:26:53.265Z,406
2017-05-17T07:27:53.236Z,407
2017-05-17T07:28:53.236Z,405
2017-05-17T07:29:53.222Z,409
2017-05-17T07:30:53.230Z,415
2017-05-17T07:31:53.251Z,416
2017-05-17T07:32:53.211Z,419
2017-05-17T07:33:53.252Z,416
2017-05-17T07:34:53.250Z,419
2017-05-17T07:35:53.238Z,425
2017-05-17T07:36:53.235Z,432
2017-05-17T07:37:53.235Z,436
2017-05-17T07:38:53.238Z,444
2017-05-17T07:39:53.230Z,447
2017-05-17T07:40:53.240Z,446
2017-05-17T07:41:53.238Z,445
2017-05-17T07:42:53.239Z,445
2017-05-17T07:43:53.240Z,447
2017-05-17T07:44:53.239Z,448
2017-05-17T07:45:53.242Z,448
2017-05-17T07:46:53.230Z,443
2017-05-17T07:47:53.240Z,446
2017-05-17T07:48:53.241Z,454
2017-05-17T07:49:53.242Z,452
2017-05-17T07:50:53.248Z,451
2017-05-17T07:51:53.250Z,443
2017-05-17T07:52:53.347Z,440
2017-05-17T07:53:53.245Z,445
2017-05-17T07:54:53.249Z,446
2017-05-17T07:55:53.245Z,449
2017-05-17T07:56:53.243Z,451
2017-05-17T07:57:53.248Z,453
2017-05-17T07:58:53.246Z,445
2017-05-17T07:59:53.249Z,448
2017-05-17T08:00:53.243Z,457
2017-05-17T08:01:53.235Z,455
2017-05-17T08:02:53.250Z,454
2017-05-17T08:03:53.251Z,456
2017-05-17T08:04:53.252Z,451
2017-05-17T08:05:53.261Z,457
2017-05-17T08:06:53.264Z,467
2017-05-17T08:07:53.229Z,473
2017-05-17T08:08:53.263Z,482
2017-05-17T08:09:53.263Z,486
2017-05-17T08:10:53.255Z,480
2017-05-17T08:11:53.249Z,490
2017-05-17T08:12:53.270Z,490
2017-05-17T08:13:53.276Z,496
2017-05-17T08:14:53.257Z,490
2017-05-17T08:15:53.242Z,486
2017-05-17T08:16:53.260Z,486
2017-05-17T08:17:53.254Z,488
2017-05-17T08:18:53.254Z,494
2017-05-17T08:19:53.234Z,499
2017-05-17T08:20:53.266Z,502
2017-05-17T08:21:53.269Z,504
2017-05-17T08:22:53.290Z,505
2017-05-17T08:23:53.256Z,512
2017-05-17T08:24:53.292Z,514
2017-05-17T08:25:53.231Z,525
2017-05-17T08:26:53.252Z,531
2017-05-17T08:27:53.295Z,534
2017-05-17T08:28:53.276Z,541
2017-05-17T08:29:53.257Z,551
2017-05-17T08:30:53.273Z,565
2017-05-17T08:31:53.279Z,580
2017-05-17T08:32:53.259Z,589
2017-05-17T08:33:53.297Z,605
2017-05-17T08:34:53.276Z,615
2017-05-17T08:35:53.299Z,624
2017-05-17T08:36:53.276Z,626
2017-05-17T08:37:53.274Z,629
2017-05-17T08:38:53.285Z,650
2017-05-17T08:39:53.280Z,662
2017-05-17T08:40:53.246Z,667
2017-05-17T08:41:53.272Z,686
2017-05-17T08:42:53.280Z,701
2017-05-17T08:43:53.281Z,731
2017-05-17T08:44:53.285Z,722
2017-05-17T08:45:53.269Z,696
2017-05-17T08:46:53.328Z,702
2017-05-17T08:47:53.285Z,708
2017-05-17T08:48:53.289Z,692
2017-05-17T08:49:53.287Z,679
2017-05-17T08:50:53.276Z,709
2017-05-17T08:51:53.247Z,696
2017-05-17T08:52:53.282Z,709
2017-05-17T08:53:53.258Z,727
2017-05-17T08:54:53.277Z,720
2017-05-17T08:55:53.288Z,699
2017-05-17T08:56:53.288Z,700
2017-05-17T08:57:53.270Z,701
2017-05-17T08:58:53.289Z,691
2017-05-17T08:59:53.288Z,706
2017-05-17T09:00:53.276Z,739
2017-05-17T09:01:53.291Z,735
2017-05-17T09:02:53.335Z,751
2017-05-17T09:03:53.297Z,748
2017-05-17T09:04:53.283Z,761
2017-05-17T09:05:53.284Z,768
2017-05-17T09:06:53.259Z,770
2017-05-17T09:07:53.295Z,743
2017-05-17T09:08:53.290Z,723
2017-05-17T09:09:53.285Z,768
2017-05-17T09:10:53.254Z,765
2017-05-17T09:11:53.293Z,800
2017-05-17T09:12:53.262Z,805
2017-05-17T09:13:53.297Z,790
2017-05-17T09:14:53.298Z,791
2017-05-17T09:15:53.304Z,796
2017-05-17T09:16:53.295Z,801
2017-05-17T09:17:53.262Z,842
2017-05-17T09:18:53.299Z,897
2017-05-17T09:19:53.301Z,829
2017-05-17T09:20:53.324Z,811
2017-05-17T09:21:53.318Z,821
2017-05-17T09:22:53.303Z,841
2017-05-17T09:23:53.263Z,822
2017-05-17T09:24:53.306Z,834
2017-05-17T09:25:53.288Z,839
2017-05-17T09:26:53.296Z,821
2017-05-17T09:27:53.294Z,832
2017-05-17T09:28:53.296Z,817
2017-05-17T09:29:53.222Z,825
2017-05-17T09:30:53.292Z,804
2017-05-17T09:31:53.294Z,822
2017-05-17T09:32:53.294Z,828
2017-05-17T09:33:53.297Z,854
2017-05-17T09:34:53.299Z,863
2017-05-17T09:35:53.327Z,875
2017-05-17T09:36:53.310Z,863
2017-05-17T09:37:53.303Z,758
2017-05-17T09:38:53.305Z,769
2017-05-17T09:39:53.305Z,761
2017-05-17T09:40:53.300Z,750
2017-05-17T09:41:53.312Z,765
2017-05-17T09:42:53.303Z,820
2017-05-17T09:43:53.335Z,845
2017-05-17T09:44:53.304Z,868
2017-05-17T09:45:53.283Z,901
2017-05-17T09:46:53.334Z,991
2017-05-17T09:47:53.270Z,893
2017-05-17T09:48:53.376Z,901
2017-05-17T09:49:53.316Z,902
2017-05-17T09:50:53.340Z,1086
2017-05-17T09:51:53.304Z,1031
2017-05-17T09:52:53.316Z,927
2017-05-17T09:53:53.335Z,997
2017-05-17T09:54:53.316Z,966
2017-05-17T09:55:53.302Z,855
2017-05-17T09:56:53.325Z,736
2017-05-17T09:57:53.325Z,661
2017-05-17T09:58:53.319Z,607
2017-05-17T09:59:53.318Z,576
2017-05-17T10:00:53.316Z,592
2017-05-17T10:01:53.322Z,590
2017-05-17T10:02:53.319Z,872
2017-05-17T10:03:53.403Z,687
2017-05-17T10:04:53.285Z,614
2017-05-17T10:05:53.305Z,566
2017-05-17T10:06:53.361Z,701
2017-05-17T10:07:53.432Z,601
2017-05-17T10:08:53.315Z,742
2017-05-17T10:09:53.330Z,659
2017-05-17T10:10:53.332Z,672
2017-05-17T10:11:53.431Z,655
2017-05-17T10:12:53.321Z,675
2017-05-17T10:13:53.329Z,694
2017-05-17T10:14:53.331Z,944
2017-05-17T10:15:53.299Z,944
2017-05-17T10:16:53.296Z,933
2017-05-17T10:17:53.300Z,815
2017-05-17T10:18:53.300Z,793
2017-05-17T10:19:53.302Z,899
2017-05-17T10:20:53.322Z,922
2017-05-17T10:21:53.298Z,968
2017-05-17T10:22:53.302Z,973
2017-05-17T10:23:53.304Z,887
2017-05-17T10:24:53.303Z,876
2017-05-17T10:25:53.304Z,899
2017-05-17T10:26:53.300Z,828
2017-05-17T10:27:53.303Z,858
2017-05-17T10:28:53.303Z,855
2017-05-17T10:29:53.303Z,878
2017-05-17T10:30:53.302Z,846
2017-05-17T10:31:53.300Z,814
2017-05-17T10:32:53.306Z,825
2017-05-17T10:33:53.301Z,855
2017-05-17T10:34:53.305Z,929
2017-05-17T10:35:53.305Z,964
2017-05-17T10:36:53.325Z,1102
2017-05-17T10:37:53.304Z,1078
2017-05-17T10:38:53.361Z,1044
2017-05-17T10:39:53.305Z,952
2017-05-17T10:40:53.342Z,953
2017-05-17T10:41:53.380Z,995
2017-05-17T10:42:53.328Z,1037
2017-05-17T10:43:53.362Z,1090
2017-05-17T10:44:53.330Z,1063
2017-05-17T10:45:53.333Z,1109
2017-05-17T10:46:53.369Z,1008
2017-05-17T10:47:53.372Z,1044
2017-05-17T10:48:53.368Z,1045
2017-05-17T10:49:53.347Z,1016
2017-05-17T10:50:53.351Z,1098
2017-05-17T10:51:53.350Z,1062
2017-05-17T10:52:53.342Z,1035
2017-05-17T10:53:53.358Z,1129
2017-05-17T10:54:53.393Z,1103
2017-05-17T10:55:53.331Z,1118
2017-05-17T10:56:53.339Z,1090
2017-05-17T10:57:53.339Z,1083
2017-05-17T10:58:53.345Z,1073
2017-05-17T10:59:53.336Z,1066
2017-05-17T11:00:53.345Z,1064
2017-05-17T11:01:53.330Z,1067
2017-05-17T11:02:53.343Z,1062
2017-05-17T11:03:53.342Z,1061
2017-05-17T11:04:53.344Z,1063
2017-05-17T11:05:53.345Z,1062
2017-05-17T11:06:53.345Z,1067
2017-05-17T11:07:53.346Z,1070
2017-05-17T11:08:53.350Z,1069
2017-05-17T11:09:53.346Z,1071
2017-05-17T11:10:53.343Z,1079
2017-05-17T11:11:53.346Z,1084
2017-05-17T11:12:53.349Z,1076
2017-05-17T11:13:53.349Z,1076
2017-05-17T11:14:53.271Z,1082
2017-05-17T11:15:53.350Z,1066
2017-05-17T11:16:53.397Z,1096
2017-05-17T11:17:53.362Z,1090
2017-05-17T11:18:53.354Z,1082
2017-05-17T11:19:53.348Z,986
2017-05-17T11:20:53.326Z,1034
2017-05-17T11:21:53.346Z,1117
2017-05-17T11:22:53.352Z,1139
2017-05-17T11:23:53.356Z,1142
2017-05-17T11:24:53.365Z,1027
2017-05-17T11:25:53.362Z,1053
2017-05-17T11:26:53.387Z,793
2017-05-17T11:27:53.354Z,1185
2017-05-17T11:28:53.361Z,1116
2017-05-17T11:29:53.371Z,839
2017-05-17T11:30:53.368Z,908
2017-05-17T11:31:53.477Z,1106
2017-05-17T11:32:53.361Z,946
2017-05-17T11:33:53.373Z,626
2017-05-17T11:34:53.341Z,989
2017-05-17T11:35:53.366Z,821
2017-05-17T11:36:53.372Z,1079
2017-05-17T11:37:53.411Z,1085
2017-05-17T11:38:53.375Z,901
2017-05-17T11:39:53.368Z,768
2017-05-17T11:40:53.377Z,915
2017-05-17T11:41:53.371Z,728
2017-05-17T11:42:53.341Z,532
2017-05-17T11:43:53.374Z,532
2017-05-17T11:44:53.376Z,736
2017-05-17T11:45:53.363Z,910
2017-05-17T11:46:53.375Z,1309
2017-05-17T11:47:53.378Z,1343
2017-05-17T11:48:53.367Z,617
2017-05-17T11:49:53.421Z,1111
2017-05-17T11:50:53.398Z,1159
2017-05-17T11:51:53.374Z,546
2017-05-17T11:52:53.378Z,596
2017-05-17T11:53:53.399Z,617
2017-05-17T11:54:53.376Z,652
2017-05-17T11:55:53.379Z,797
2017-05-17T11:56:53.402Z,576
2017-05-17T11:57:53.381Z,498
2017-05-17T11:58:53.380Z,492
2017-05-17T12:00:53.347Z,509
2017-05-17T12:01:53.403Z,666
2017-05-17T12:02:53.407Z,577
2017-05-17T12:03:53.369Z,888
2017-05-17T12:04:53.385Z,1108
2017-05-17T12:05:53.391Z,1138
2017-05-17T12:06:53.377Z,1059
2017-05-17T12:07:53.381Z,1292
2017-05-17T12:08:53.386Z,682
2017-05-17T12:09:53.406Z,548
2017-05-17T12:10:53.349Z,590
2017-05-17T12:11:53.440Z,939
2017-05-17T12:12:53.352Z,860
2017-05-17T12:13:53.381Z,716
2017-05-17T12:14:53.380Z,508
2017-05-17T12:15:53.391Z,488
2017-05-17T12:16:53.384Z,515
2017-05-17T12:17:53.435Z,777
2017-05-17T12:18:53.382Z,480
2017-05-17T12:19:53.448Z,526
2017-05-17T12:20:53.393Z,1055
2017-05-17T12:21:53.391Z,1039
2017-05-17T12:22:53.393Z,943
2017-05-17T12:23:53.391Z,1023
2017-05-17T12:24:53.395Z,970
2017-05-17T12:25:53.386Z,844
2017-05-17T12:26:53.400Z,839
2017-05-17T12:27:53.392Z,640
2017-05-17T12:28:53.396Z,668
2017-05-17T12:29:53.399Z,758
2017-05-17T12:30:53.384Z,724
2017-05-17T12:31:53.394Z,875
2017-05-17T12:32:53.404Z,1212
2017-05-17T12:33:53.386Z,1079
2017-05-17T12:34:53.395Z,1163
2017-05-17T12:35:53.404Z,1150
2017-05-17T12:36:53.392Z,1135
2017-05-17T12:37:53.383Z,1113
2017-05-17T12:38:53.397Z,1221
2017-05-17T12:39:53.460Z,1205
2017-05-17T12:40:53.442Z,1190
2017-05-17T12:41:53.404Z,1161
2017-05-17T12:42:53.403Z,1151
2017-05-17T12:43:53.389Z,1138
2017-05-17T12:44:53.426Z,1124
2017-05-17T12:45:53.374Z,1112
2017-05-17T12:46:53.410Z,1104
2017-05-17T12:47:53.400Z,1090
2017-05-17T12:48:53.428Z,1080
2017-05-17T12:49:53.409Z,1072
2017-05-17T12:50:53.393Z,1072
2017-05-17T12:51:53.414Z,1067
2017-05-17T12:52:53.375Z,1060
2017-05-17T12:53:53.395Z,1040
2017-05-17T12:54:53.395Z,1040
2017-05-17T12:55:53.430Z,1032
2017-05-17T12:56:53.411Z,1038
2017-05-17T12:57:53.416Z,1030
2017-05-17T12:58:53.412Z,1012
2017-05-17T12:59:53.396Z,1018
2017-05-17T13:00:53.399Z,1010
2017-05-17T13:01:53.489Z,1023
2017-05-17T13:02:53.417Z,1018
2017-05-17T13:03:53.406Z,1011
2017-05-17T13:04:53.420Z,1005
2017-05-17T13:05:53.407Z,983
2017-05-17T13:06:53.382Z,994
2017-05-17T13:07:53.390Z,985
2017-05-17T13:08:53.386Z,984
2017-05-17T13:09:53.384Z,977
2017-05-17T13:10:53.390Z,972
2017-05-17T13:11:53.387Z,957
2017-05-17T13:12:53.388Z,948
2017-05-17T13:13:53.391Z,956
2017-05-17T13:14:53.384Z,952
2017-05-17T13:15:53.392Z,951
2017-05-17T13:16:53.425Z,956
2017-05-17T13:17:53.422Z,951
2017-05-17T13:18:53.385Z,932
2017-05-17T13:19:53.463Z,941
2017-05-17T13:20:53.389Z,940
2017-05-17T13:21:53.446Z,941
2017-05-17T13:22:53.411Z,939
2017-05-17T13:23:53.420Z,924
2017-05-17T13:24:53.429Z,925
2017-05-17T13:25:53.424Z,922
2017-05-17T13:26:53.395Z,923
2017-05-17T13:27:53.473Z,917
2017-05-17T13:28:53.441Z,917
2017-05-17T13:29:53.427Z,926
2017-05-17T13:30:53.431Z,912
2017-05-17T13:31:53.430Z,911
2017-05-17T13:32:53.438Z,916
2017-05-17T13:33:53.415Z,914
2017-05-17T13:34:53.411Z,908
2017-05-17T13:35:53.425Z,902
2017-05-17T13:36:53.399Z,901
2017-05-17T13:37:53.413Z,905
2017-05-17T13:38:53.474Z,908
2017-05-17T13:39:53.416Z,901
2017-05-17T13:40:53.433Z,891
2017-05-17T13:41:53.425Z,883
2017-05-17T13:42:53.437Z,895
2017-05-17T13:43:53.434Z,891
2017-05-17T13:44:53.441Z,887
2017-05-17T13:45:53.439Z,880
2017-05-17T13:46:53.404Z,872
2017-05-17T13:47:53.403Z,879
2017-05-17T13:48:53.408Z,881
2017-05-17T13:49:53.404Z,868
2017-05-17T13:50:53.408Z,865
2017-05-17T13:51:53.406Z,871
2017-05-17T13:52:53.406Z,875
2017-05-17T13:53:53.407Z,874
2017-05-17T13:54:53.408Z,879
2017-05-17T13:55:53.406Z,850
2017-05-17T13:56:53.404Z,872
2017-05-17T13:57:53.486Z,874
2017-05-17T13:58:53.442Z,871
2017-05-17T13:59:53.414Z,859
2017-05-17T14:00:53.443Z,855
2017-05-17T14:01:53.452Z,850
2017-05-17T14:02:53.488Z,850
2017-05-17T14:03:53.488Z,847
2017-05-17T14:04:53.470Z,839